Terminal Aerodrome Forecast
Issued by NWS Melbourne, FL

Home | Current Version | Previous Version | Text Only | Print | Product List | Glossary On
Versions: 1 2 3 4 5 6 7 8 9 10 11 12 13 14 15 16 17 18 19 20 21 22 23 24 25 26 27 28 29 30 31 32 33 34 35 36 37 38 39 40 41 42 43 44 45 46 47 48
000
FTUS42 KMLB 151501 AAA
TAFMCO
TAF AMD
KMCO 151501Z 1515/1618 36012KT P6SM VCSH SCT020 BKN040
      TEMPO 1516/1518 3SM SHRA BKN025
     FM151800 36013G19KT P6SM VCSH SCT035 BKN060
     FM160000 35009KT P6SM SCT030 BKN080
     FM160600 32007KT P6SM SCT020 BKN250
     FM161400 34009KT P6SM SCT020 BKN040=

USA.gov is the U.S. government's official web portal to all federal, state and local government web resources and services.